sensor_id;sensor_type;location;lat;lon;timestamp;temperature;humidity
26909;DHT22;14477;51.038;4.588;2023-07-16T00:01:04;19.30;77.20
26909;DHT22;14477;51.038;4.588;2023-07-16T00:03:29;19.30;77.30
26909;DHT22;14477;51.038;4.588;2023-07-16T00:05:55;19.30;77.40
26909;DHT22;14477;51.038;4.588;2023-07-16T00:08:22;19.30;77.50
26909;DHT22;14477;51.038;4.588;2023-07-16T00:10:47;19.30;77.70
26909;DHT22;14477;51.038;4.588;2023-07-16T00:13:13;19.30;77.70
26909;DHT22;14477;51.038;4.588;2023-07-16T00:15:39;19.30;77.80
26909;DHT22;14477;51.038;4.588;2023-07-16T00:18:04;19.30;77.80
26909;DHT22;14477;51.038;4.588;2023-07-16T00:20:32;19.30;77.80
26909;DHT22;14477;51.038;4.588;2023-07-16T00:22:58;19.30;77.80
26909;DHT22;14477;51.038;4.588;2023-07-16T00:25:24;19.20;77.80
26909;DHT22;14477;51.038;4.588;2023-07-16T00:27:49;19.30;78.00
26909;DHT22;14477;51.038;4.588;2023-07-16T00:30:15;19.30;78.00
26909;DHT22;14477;51.038;4.588;2023-07-16T00:32:41;19.30;78.10
26909;DHT22;14477;51.038;4.588;2023-07-16T00:35:07;19.20;78.20
26909;DHT22;14477;51.038;4.588;2023-07-16T00:37:34;19.20;78.30
26909;DHT22;14477;51.038;4.588;2023-07-16T00:40:00;19.20;78.40
26909;DHT22;14477;51.038;4.588;2023-07-16T00:42:26;19.10;78.50
26909;DHT22;14477;51.038;4.588;2023-07-16T00:44:51;19.10;78.60
26909;DHT22;14477;51.038;4.588;2023-07-16T00:47:17;19.10;78.70
26909;DHT22;14477;51.038;4.588;2023-07-16T00:49:44;19.10;78.70
26909;DHT22;14477;51.038;4.588;2023-07-16T00:52:15;19.00;78.80
26909;DHT22;14477;51.038;4.588;2023-07-16T00:54:42;19.00;79.20
26909;DHT22;14477;51.038;4.588;2023-07-16T00:57:08;19.00;79.00
26909;DHT22;14477;51.038;4.588;2023-07-16T00:59:34;19.00;79.00
26909;DHT22;14477;51.038;4.588;2023-07-16T01:01:59;19.00;79.20
26909;DHT22;14477;51.038;4.588;2023-07-16T01:04:25;18.90;79.20
26909;DHT22;14477;51.038;4.588;2023-07-16T01:06:53;18.90;79.30
26909;DHT22;14477;51.038;4.588;2023-07-16T01:09:20;18.90;79.40
26909;DHT22;14477;51.038;4.588;2023-07-16T01:11:47;18.90;79.30
26909;DHT22;14477;51.038;4.588;2023-07-16T01:14:15;18.80;79.50
26909;DHT22;14477;51.038;4.588;2023-07-16T01:16:41;18.80;79.60
26909;DHT22;14477;51.038;4.588;2023-07-16T01:19:08;18.80;79.70
26909;DHT22;14477;51.038;4.588;2023-07-16T01:25:01;18.80;80.50
26909;DHT22;14477;51.038;4.588;2023-07-16T01:30:08;18.70;80.40
26909;DHT22;14477;51.038;4.588;2023-07-16T01:32:37;18.70;80.00
26909;DHT22;14477;51.038;4.588;2023-07-16T01:35:05;18.70;80.10
26909;DHT22;14477;51.038;4.588;2023-07-16T01:37:32;18.60;80.20
26909;DHT22;14477;51.038;4.588;2023-07-16T01:39:58;18.60;80.20
26909;DHT22;14477;51.038;4.588;2023-07-16T01:42:23;18.60;80.20
26909;DHT22;14477;51.038;4.588;2023-07-16T01:44:49;18.60;80.20
26909;DHT22;14477;51.038;4.588;2023-07-16T01:50:06;18.60;80.60
26909;DHT22;14477;51.038;4.588;2023-07-16T01:52:32;18.60;80.30
26909;DHT22;14477;51.038;4.588;2023-07-16T01:54:58;18.50;81.10
26909;DHT22;14477;51.038;4.588;2023-07-16T01:57:24;18.50;80.30
26909;DHT22;14477;51.038;4.588;2023-07-16T01:59:49;18.50;80.20
26909;DHT22;14477;51.038;4.588;2023-07-16T02:02:15;18.50;80.20
26909;DHT22;14477;51.038;4.588;2023-07-16T02:04:41;18.50;80.20
26909;DHT22;14477;51.038;4.588;2023-07-16T02:07:06;18.50;80.10
26909;DHT22;14477;51.038;4.588;2023-07-16T02:09:33;18.50;80.00
26909;DHT22;14477;51.038;4.588;2023-07-16T02:12:00;18.50;79.90
26909;DHT22;14477;51.038;4.588;2023-07-16T02:14:26;18.50;79.70
26909;DHT22;14477;51.038;4.588;2023-07-16T02:16:52;18.50;79.60
26909;DHT22;14477;51.038;4.588;2023-07-16T02:19:17;18.50;80.20
26909;DHT22;14477;51.038;4.588;2023-07-16T02:21:43;18.50;79.40
26909;DHT22;14477;51.038;4.588;2023-07-16T02:24:09;18.50;79.20
26909;DHT22;14477;51.038;4.588;2023-07-16T02:26:35;18.50;79.00
26909;DHT22;14477;51.038;4.588;2023-07-16T02:29:00;18.50;78.90
26909;DHT22;14477;51.038;4.588;2023-07-16T02:31:26;18.50;78.80
26909;DHT22;14477;51.038;4.588;2023-07-16T02:33:52;18.40;78.60
26909;DHT22;14477;51.038;4.588;2023-07-16T02:36:17;18.40;78.60
26909;DHT22;14477;51.038;4.588;2023-07-16T02:38:43;18.40;78.60
26909;DHT22;14477;51.038;4.588;2023-07-16T02:41:09;18.40;78.50
26909;DHT22;14477;51.038;4.588;2023-07-16T02:43:34;18.40;78.50
26909;DHT22;14477;51.038;4.588;2023-07-16T02:46:00;18.40;78.40
26909;DHT22;14477;51.038;4.588;2023-07-16T02:48:26;18.30;78.30
26909;DHT22;14477;51.038;4.588;2023-07-16T02:50:52;18.30;78.40
26909;DHT22;14477;51.038;4.588;2023-07-16T02:53:17;18.20;78.30
26909;DHT22;14477;51.038;4.588;2023-07-16T02:55:45;18.20;78.40
26909;DHT22;14477;51.038;4.588;2023-07-16T02:58:11;18.20;78.40
26909;DHT22;14477;51.038;4.588;2023-07-16T03:00:36;18.20;78.40
26909;DHT22;14477;51.038;4.588;2023-07-16T03:03:02;18.20;78.40
26909;DHT22;14477;51.038;4.588;2023-07-16T03:05:28;18.20;78.40
26909;DHT22;14477;51.038;4.588;2023-07-16T03:07:55;18.10;78.40
26909;DHT22;14477;51.038;4.588;2023-07-16T03:10:21;18.10;78.30
26909;DHT22;14477;51.038;4.588;2023-07-16T03:12:47;18.10;78.30
26909;DHT22;14477;51.038;4.588;2023-07-16T03:15:13;18.10;78.30
26909;DHT22;14477;51.038;4.588;2023-07-16T03:17:39;18.10;78.20
26909;DHT22;14477;51.038;4.588;2023-07-16T03:20:05;18.10;78.20
26909;DHT22;14477;51.038;4.588;2023-07-16T03:22:31;18.10;78.10
26909;DHT22;14477;51.038;4.588;2023-07-16T03:24:57;18.10;78.10
26909;DHT22;14477;51.038;4.588;2023-07-16T03:27:23;18.20;78.10
26909;DHT22;14477;51.038;4.588;2023-07-16T03:29:48;18.20;78.00
26909;DHT22;14477;51.038;4.588;2023-07-16T03:32:14;18.20;77.80
26909;DHT22;14477;51.038;4.588;2023-07-16T03:34:40;18.20;77.80
26909;DHT22;14477;51.038;4.588;2023-07-16T03:37:06;18.20;77.70
26909;DHT22;14477;51.038;4.588;2023-07-16T03:39:32;18.20;77.60
26909;DHT22;14477;51.038;4.588;2023-07-16T03:41:57;18.20;77.70
26909;DHT22;14477;51.038;4.588;2023-07-16T03:44:23;18.20;77.50
26909;DHT22;14477;51.038;4.588;2023-07-16T03:46:49;18.20;77.50
26909;DHT22;14477;51.038;4.588;2023-07-16T03:49:14;18.20;77.40
26909;DHT22;14477;51.038;4.588;2023-07-16T03:51:40;18.20;77.50
26909;DHT22;14477;51.038;4.588;2023-07-16T03:54:06;18.20;77.50
26909;DHT22;14477;51.038;4.588;2023-07-16T03:56:32;18.20;77.50
26909;DHT22;14477;51.038;4.588;2023-07-16T03:58:57;18.20;77.40
26909;DHT22;14477;51.038;4.588;2023-07-16T04:01:23;18.20;77.50
26909;DHT22;14477;51.038;4.588;2023-07-16T04:03:49;18.20;78.10
26909;DHT22;14477;51.038;4.588;2023-07-16T04:06:14;18.20;77.50
26909;DHT22;14477;51.038;4.588;2023-07-16T04:08:40;18.20;77.40
26909;DHT22;14477;51.038;4.588;2023-07-16T04:11:06;18.20;77.50
26909;DHT22;14477;51.038;4.588;2023-07-16T04:13:32;18.20;77.50
26909;DHT22;14477;51.038;4.588;2023-07-16T04:15:59;18.30;77.30
26909;DHT22;14477;51.038;4.588;2023-07-16T04:18:25;18.30;77.30
26909;DHT22;14477;51.038;4.588;2023-07-16T04:20:51;18.30;77.40
26909;DHT22;14477;51.038;4.588;2023-07-16T04:23:17;18.30;77.30
26909;DHT22;14477;51.038;4.588;2023-07-16T04:25:42;18.30;77.30
26909;DHT22;14477;51.038;4.588;2023-07-16T04:28:09;18.30;77.50
26909;DHT22;14477;51.038;4.588;2023-07-16T04:30:35;18.30;77.40
26909;DHT22;14477;51.038;4.588;2023-07-16T04:33:03;18.30;77.30
26909;DHT22;14477;51.038;4.588;2023-07-16T04:35:29;18.30;77.30
26909;DHT22;14477;51.038;4.588;2023-07-16T04:37:55;18.30;77.30
26909;DHT22;14477;51.038;4.588;2023-07-16T04:40:20;18.30;77.30
26909;DHT22;14477;51.038;4.588;2023-07-16T04:42:46;18.30;77.40
26909;DHT22;14477;51.038;4.588;2023-07-16T04:45:13;18.30;77.40
26909;DHT22;14477;51.038;4.588;2023-07-16T04:47:38;18.30;77.30
26909;DHT22;14477;51.038;4.588;2023-07-16T04:50:05;18.30;77.40
26909;DHT22;14477;51.038;4.588;2023-07-16T04:52:31;18.30;77.50
26909;DHT22;14477;51.038;4.588;2023-07-16T04:54:57;18.30;77.30
26909;DHT22;14477;51.038;4.588;2023-07-16T04:57:22;18.40;77.40
26909;DHT22;14477;51.038;4.588;2023-07-16T04:59:48;18.30;77.40
26909;DHT22;14477;51.038;4.588;2023-07-16T05:02:14;18.40;77.50
26909;DHT22;14477;51.038;4.588;2023-07-16T05:04:41;18.40;77.50
26909;DHT22;14477;51.038;4.588;2023-07-16T05:07:09;18.40;77.40
26909;DHT22;14477;51.038;4.588;2023-07-16T05:09:35;18.40;77.20
26909;DHT22;14477;51.038;4.588;2023-07-16T05:12:01;18.40;77.10
26909;DHT22;14477;51.038;4.588;2023-07-16T05:14:28;18.50;77.20
26909;DHT22;14477;51.038;4.588;2023-07-16T05:16:54;18.50;77.20
26909;DHT22;14477;51.038;4.588;2023-07-16T05:19:20;18.50;77.10
26909;DHT22;14477;51.038;4.588;2023-07-16T05:21:45;18.50;77.20
26909;DHT22;14477;51.038;4.588;2023-07-16T05:24:11;18.50;77.10
26909;DHT22;14477;51.038;4.588;2023-07-16T05:26:38;18.50;77.20
26909;DHT22;14477;51.038;4.588;2023-07-16T05:29:03;18.60;77.20
26909;DHT22;14477;51.038;4.588;2023-07-16T05:31:29;18.60;77.20
26909;DHT22;14477;51.038;4.588;2023-07-16T05:33:55;18.60;77.10
26909;DHT22;14477;51.038;4.588;2023-07-16T05:36:20;18.60;77.10
26909;DHT22;14477;51.038;4.588;2023-07-16T05:38:46;18.70;77.20
26909;DHT22;14477;51.038;4.588;2023-07-16T05:41:12;18.70;77.20
26909;DHT22;14477;51.038;4.588;2023-07-16T05:43:38;18.70;77.10
26909;DHT22;14477;51.038;4.588;2023-07-16T05:46:03;18.70;77.20
26909;DHT22;14477;51.038;4.588;2023-07-16T05:48:31;18.70;77.10
26909;DHT22;14477;51.038;4.588;2023-07-16T05:50:56;18.80;77.10
26909;DHT22;14477;51.038;4.588;2023-07-16T05:53:22;18.80;77.30
26909;DHT22;14477;51.038;4.588;2023-07-16T05:55:48;18.80;77.20
26909;DHT22;14477;51.038;4.588;2023-07-16T05:58:15;18.80;77.20
26909;DHT22;14477;51.038;4.588;2023-07-16T06:00:41;18.90;77.10
26909;DHT22;14477;51.038;4.588;2023-07-16T06:03:07;18.90;77.20
26909;DHT22;14477;51.038;4.588;2023-07-16T06:05:33;18.90;77.40
26909;DHT22;14477;51.038;4.588;2023-07-16T06:08:00;19.00;77.60
26909;DHT22;14477;51.038;4.588;2023-07-16T06:10:27;19.00;77.30
26909;DHT22;14477;51.038;4.588;2023-07-16T06:12:52;19.00;77.40
26909;DHT22;14477;51.038;4.588;2023-07-16T06:15:18;19.10;77.60
26909;DHT22;14477;51.038;4.588;2023-07-16T06:17:44;19.10;77.60
26909;DHT22;14477;51.038;4.588;2023-07-16T06:20:10;19.10;77.50
26909;DHT22;14477;51.038;4.588;2023-07-16T06:22:36;19.10;77.40
26909;DHT22;14477;51.038;4.588;2023-07-16T06:25:02;19.20;77.30
26909;DHT22;14477;51.038;4.588;2023-07-16T06:27:30;19.20;77.30
26909;DHT22;14477;51.038;4.588;2023-07-16T06:29:55;19.20;77.40
26909;DHT22;14477;51.038;4.588;2023-07-16T06:32:21;19.30;77.30
26909;DHT22;14477;51.038;4.588;2023-07-16T06:34:47;19.30;77.30
26909;DHT22;14477;51.038;4.588;2023-07-16T06:37:12;19.30;77.10
26909;DHT22;14477;51.038;4.588;2023-07-16T06:39:38;19.40;77.30
26909;DHT22;14477;51.038;4.588;2023-07-16T06:42:04;19.40;77.00
26909;DHT22;14477;51.038;4.588;2023-07-16T06:44:30;19.50;77.00
26909;DHT22;14477;51.038;4.588;2023-07-16T06:46:56;19.50;77.20
26909;DHT22;14477;51.038;4.588;2023-07-16T06:49:23;19.60;77.30
26909;DHT22;14477;51.038;4.588;2023-07-16T06:51:49;19.60;77.20
26909;DHT22;14477;51.038;4.588;2023-07-16T06:54:15;19.60;77.10
26909;DHT22;14477;51.038;4.588;2023-07-16T06:56:40;19.70;77.10
26909;DHT22;14477;51.038;4.588;2023-07-16T06:59:06;19.70;77.10
26909;DHT22;14477;51.038;4.588;2023-07-16T07:01:32;19.70;77.20
26909;DHT22;14477;51.038;4.588;2023-07-16T07:03:57;19.80;77.40
26909;DHT22;14477;51.038;4.588;2023-07-16T07:06:23;19.90;77.50
26909;DHT22;14477;51.038;4.588;2023-07-16T07:08:49;20.00;77.40
26909;DHT22;14477;51.038;4.588;2023-07-16T07:11:14;20.00;77.20
26909;DHT22;14477;51.038;4.588;2023-07-16T07:13:40;20.10;77.10
26909;DHT22;14477;51.038;4.588;2023-07-16T07:16:06;20.10;77.20
26909;DHT22;14477;51.038;4.588;2023-07-16T07:18:31;20.20;77.10
26909;DHT22;14477;51.038;4.588;2023-07-16T07:20:57;20.30;76.70
26909;DHT22;14477;51.038;4.588;2023-07-16T07:23:23;20.30;76.70
26909;DHT22;14477;51.038;4.588;2023-07-16T07:25:51;20.40;76.70
26909;DHT22;14477;51.038;4.588;2023-07-16T07:28:18;20.50;76.60
26909;DHT22;14477;51.038;4.588;2023-07-16T07:30:44;20.50;77.00
26909;DHT22;14477;51.038;4.588;2023-07-16T07:33:10;20.60;76.80
26909;DHT22;14477;51.038;4.588;2023-07-16T07:35:36;20.60;76.60
26909;DHT22;14477;51.038;4.588;2023-07-16T07:38:02;20.70;76.50
26909;DHT22;14477;51.038;4.588;2023-07-16T07:40:28;20.80;76.50
26909;DHT22;14477;51.038;4.588;2023-07-16T07:42:53;20.90;76.50
26909;DHT22;14477;51.038;4.588;2023-07-16T07:45:19;20.90;76.50
26909;DHT22;14477;51.038;4.588;2023-07-16T07:47:45;21.00;76.70
26909;DHT22;14477;51.038;4.588;2023-07-16T07:50:11;21.10;77.00
26909;DHT22;14477;51.038;4.588;2023-07-16T07:52:37;21.20;77.30
26909;DHT22;14477;51.038;4.588;2023-07-16T07:55:03;21.30;77.30
26909;DHT22;14477;51.038;4.588;2023-07-16T07:57:29;21.50;77.10
26909;DHT22;14477;51.038;4.588;2023-07-16T07:59:55;21.60;76.50
26909;DHT22;14477;51.038;4.588;2023-07-16T08:02:24;21.70;76.30
26909;DHT22;14477;51.038;4.588;2023-07-16T08:04:54;21.80;76.40
26909;DHT22;14477;51.038;4.588;2023-07-16T08:07:21;22.00;76.90
26909;DHT22;14477;51.038;4.588;2023-07-16T08:09:47;22.10;77.00
26909;DHT22;14477;51.038;4.588;2023-07-16T08:12:13;22.30;77.70
26909;DHT22;14477;51.038;4.588;2023-07-16T08:14:39;22.60;78.10
26909;DHT22;14477;51.038;4.588;2023-07-16T08:17:05;22.90;78.30
26909;DHT22;14477;51.038;4.588;2023-07-16T08:19:31;23.20;79.10
26909;DHT22;14477;51.038;4.588;2023-07-16T08:21:57;23.60;78.50
26909;DHT22;14477;51.038;4.588;2023-07-16T08:24:22;23.90;76.80
26909;DHT22;14477;51.038;4.588;2023-07-16T08:26:49;24.10;74.60
26909;DHT22;14477;51.038;4.588;2023-07-16T08:29:15;24.30;75.00
26909;DHT22;14477;51.038;4.588;2023-07-16T08:31:41;24.50;74.80
26909;DHT22;14477;51.038;4.588;2023-07-16T08:34:07;24.60;75.00
26909;DHT22;14477;51.038;4.588;2023-07-16T08:36:33;24.90;74.90
26909;DHT22;14477;51.038;4.588;2023-07-16T08:38:59;25.10;75.50
26909;DHT22;14477;51.038;4.588;2023-07-16T08:41:25;25.40;74.40
26909;DHT22;14477;51.038;4.588;2023-07-16T08:43:51;25.60;73.90
26909;DHT22;14477;51.038;4.588;2023-07-16T08:46:17;25.90;73.50
26909;DHT22;14477;51.038;4.588;2023-07-16T08:48:44;26.10;73.10
26909;DHT22;14477;51.038;4.588;2023-07-16T08:51:10;26.30;72.10
26909;DHT22;14477;51.038;4.588;2023-07-16T08:53:39;26.40;71.30
26909;DHT22;14477;51.038;4.588;2023-07-16T08:56:05;26.40;69.50
26909;DHT22;14477;51.038;4.588;2023-07-16T08:58:31;26.30;68.00
26909;DHT22;14477;51.038;4.588;2023-07-16T09:00:59;26.20;67.80
26909;DHT22;14477;51.038;4.588;2023-07-16T09:03:25;26.00;67.30
26909;DHT22;14477;51.038;4.588;2023-07-16T09:05:51;25.80;67.10
26909;DHT22;14477;51.038;4.588;2023-07-16T09:08:16;25.60;67.10
26909;DHT22;14477;51.038;4.588;2023-07-16T09:10:43;25.40;66.80
26909;DHT22;14477;51.038;4.588;2023-07-16T09:13:09;25.20;67.20
26909;DHT22;14477;51.038;4.588;2023-07-16T09:15:35;25.10;67.50
26909;DHT22;14477;51.038;4.588;2023-07-16T09:18:01;25.00;67.80
26909;DHT22;14477;51.038;4.588;2023-07-16T09:20:27;24.90;67.70
26909;DHT22;14477;51.038;4.588;2023-07-16T09:22:54;24.80;68.60
26909;DHT22;14477;51.038;4.588;2023-07-16T09:25:40;24.80;68.30
26909;DHT22;14477;51.038;4.588;2023-07-16T09:28:08;24.80;67.40
26909;DHT22;14477;51.038;4.588;2023-07-16T09:30:34;24.70;68.70
26909;DHT22;14477;51.038;4.588;2023-07-16T09:33:16;24.80;68.40
26909;DHT22;14477;51.038;4.588;2023-07-16T09:35:43;24.70;66.60
26909;DHT22;14477;51.038;4.588;2023-07-16T09:38:10;24.70;67.60
26909;DHT22;14477;51.038;4.588;2023-07-16T09:40:39;24.70;67.50
26909;DHT22;14477;51.038;4.588;2023-07-16T09:43:08;24.60;66.90
26909;DHT22;14477;51.038;4.588;2023-07-16T09:45:34;24.50;66.60
26909;DHT22;14477;51.038;4.588;2023-07-16T09:48:00;24.40;66.10
26909;DHT22;14477;51.038;4.588;2023-07-16T09:50:33;24.30;66.40
26909;DHT22;14477;51.038;4.588;2023-07-16T09:52:59;24.20;66.40
26909;DHT22;14477;51.038;4.588;2023-07-16T09:55:25;24.10;66.50
26909;DHT22;14477;51.038;4.588;2023-07-16T09:57:55;24.00;66.20
26909;DHT22;14477;51.038;4.588;2023-07-16T10:00:23;23.90;65.60
26909;DHT22;14477;51.038;4.588;2023-07-16T10:02:51;23.80;65.80
26909;DHT22;14477;51.038;4.588;2023-07-16T10:05:24;23.70;65.70
26909;DHT22;14477;51.038;4.588;2023-07-16T10:07:52;23.50;65.60
26909;DHT22;14477;51.038;4.588;2023-07-16T10:10:19;23.50;66.60
26909;DHT22;14477;51.038;4.588;2023-07-16T10:12:56;23.50;67.00
26909;DHT22;14477;51.038;4.588;2023-07-16T10:15:29;23.40;66.30
26909;DHT22;14477;51.038;4.588;2023-07-16T10:17:55;23.40;66.80
26909;DHT22;14477;51.038;4.588;2023-07-16T10:20:33;23.40;67.90
26909;DHT22;14477;51.038;4.588;2023-07-16T10:23:10;23.50;67.50
26909;DHT22;14477;51.038;4.588;2023-07-16T10:25:37;23.60;68.10
26909;DHT22;14477;51.038;4.588;2023-07-16T10:28:03;23.70;68.30
26909;DHT22;14477;51.038;4.588;2023-07-16T10:30:30;23.70;68.10
26909;DHT22;14477;51.038;4.588;2023-07-16T10:32:56;23.80;68.10
26909;DHT22;14477;51.038;4.588;2023-07-16T10:35:22;23.90;68.40
26909;DHT22;14477;51.038;4.588;2023-07-16T10:37:47;23.90;68.10
26909;DHT22;14477;51.038;4.588;2023-07-16T10:40:14;24.00;67.70
26909;DHT22;14477;51.038;4.588;2023-07-16T10:42:42;24.00;67.60
26909;DHT22;14477;51.038;4.588;2023-07-16T10:45:12;24.00;67.40
26909;DHT22;14477;51.038;4.588;2023-07-16T10:47:40;24.00;67.30
26909;DHT22;14477;51.038;4.588;2023-07-16T10:50:09;24.00;67.50
26909;DHT22;14477;51.038;4.588;2023-07-16T10:52:36;24.00;67.30
26909;DHT22;14477;51.038;4.588;2023-07-16T10:55:03;24.00;67.60
26909;DHT22;14477;51.038;4.588;2023-07-16T10:57:29;24.00;67.70
26909;DHT22;14477;51.038;4.588;2023-07-16T10:59:58;24.00;67.70
26909;DHT22;14477;51.038;4.588;2023-07-16T11:02:25;24.10;67.20
26909;DHT22;14477;51.038;4.588;2023-07-16T11:04:52;24.10;67.30
26909;DHT22;14477;51.038;4.588;2023-07-16T11:07:23;24.10;67.50
26909;DHT22;14477;51.038;4.588;2023-07-16T11:09:52;24.20;67.70
26909;DHT22;14477;51.038;4.588;2023-07-16T11:12:23;24.20;67.40
26909;DHT22;14477;51.038;4.588;2023-07-16T11:14:51;24.20;67.10
26909;DHT22;14477;51.038;4.588;2023-07-16T11:17:17;24.20;66.70
26909;DHT22;14477;51.038;4.588;2023-07-16T11:19:47;24.20;66.60
26909;DHT22;14477;51.038;4.588;2023-07-16T11:22:14;24.10;65.90
26909;DHT22;14477;51.038;4.588;2023-07-16T11:27:13;24.00;66.80
26909;DHT22;14477;51.038;4.588;2023-07-16T11:29:39;24.00;67.00
26909;DHT22;14477;51.038;4.588;2023-07-16T11:32:07;24.00;68.30
26909;DHT22;14477;51.038;4.588;2023-07-16T11:34:33;24.20;69.00
26909;DHT22;14477;51.038;4.588;2023-07-16T11:37:12;24.30;68.90
26909;DHT22;14477;51.038;4.588;2023-07-16T11:39:37;24.50;67.70
26909;DHT22;14477;51.038;4.588;2023-07-16T11:42:04;24.70;68.70
26909;DHT22;14477;51.038;4.588;2023-07-16T11:44:36;24.70;68.20
26909;DHT22;14477;51.038;4.588;2023-07-16T11:47:03;24.90;67.40
26909;DHT22;14477;51.038;4.588;2023-07-16T11:49:29;25.00;68.20
26909;DHT22;14477;51.038;4.588;2023-07-16T11:51:54;25.10;68.20
26909;DHT22;14477;51.038;4.588;2023-07-16T11:54:20;25.20;67.30
26909;DHT22;14477;51.038;4.588;2023-07-16T11:56:46;25.20;66.00
26909;DHT22;14477;51.038;4.588;2023-07-16T11:59:13;25.30;66.00
26909;DHT22;14477;51.038;4.588;2023-07-16T12:01:39;25.30;66.20
26909;DHT22;14477;51.038;4.588;2023-07-16T12:04:05;25.30;67.10
26909;DHT22;14477;51.038;4.588;2023-07-16T12:06:30;25.40;69.10
26909;DHT22;14477;51.038;4.588;2023-07-16T12:08:56;25.70;69.50
26909;DHT22;14477;51.038;4.588;2023-07-16T12:11:22;25.90;69.40
26909;DHT22;14477;51.038;4.588;2023-07-16T12:13:48;26.10;67.60
26909;DHT22;14477;51.038;4.588;2023-07-16T12:16:13;26.30;67.20
26909;DHT22;14477;51.038;4.588;2023-07-16T12:18:39;26.30;66.10
26909;DHT22;14477;51.038;4.588;2023-07-16T12:21:05;26.30;65.00
26909;DHT22;14477;51.038;4.588;2023-07-16T12:23:32;26.30;65.40
26909;DHT22;14477;51.038;4.588;2023-07-16T12:25:58;26.30;65.60
26909;DHT22;14477;51.038;4.588;2023-07-16T12:28:23;26.40;65.30
26909;DHT22;14477;51.038;4.588;2023-07-16T12:30:49;26.40;66.80
26909;DHT22;14477;51.038;4.588;2023-07-16T12:33:15;26.60;67.50
26909;DHT22;14477;51.038;4.588;2023-07-16T12:35:40;26.80;67.40
26909;DHT22;14477;51.038;4.588;2023-07-16T12:38:06;27.10;66.70
26909;DHT22;14477;51.038;4.588;2023-07-16T12:40:32;27.20;65.60
26909;DHT22;14477;51.038;4.588;2023-07-16T12:43:05;27.20;64.20
26909;DHT22;14477;51.038;4.588;2023-07-16T12:45:30;27.20;63.00
26909;DHT22;14477;51.038;4.588;2023-07-16T12:47:56;27.10;62.70
26909;DHT22;14477;51.038;4.588;2023-07-16T12:50:22;27.00;62.70
26909;DHT22;14477;51.038;4.588;2023-07-16T12:52:49;26.90;62.20
26909;DHT22;14477;51.038;4.588;2023-07-16T12:55:14;26.80;61.80
26909;DHT22;14477;51.038;4.588;2023-07-16T12:57:40;26.60;61.80
26909;DHT22;14477;51.038;4.588;2023-07-16T13:00:06;26.40;61.20
26909;DHT22;14477;51.038;4.588;2023-07-16T13:02:35;26.20;61.40
26909;DHT22;14477;51.038;4.588;2023-07-16T13:05:00;25.80;61.10
26909;DHT22;14477;51.038;4.588;2023-07-16T13:07:26;25.50;61.70
26909;DHT22;14477;51.038;4.588;2023-07-16T13:09:52;25.20;62.50
26909;DHT22;14477;51.038;4.588;2023-07-16T13:12:17;25.00;63.80
26909;DHT22;14477;51.038;4.588;2023-07-16T13:14:43;25.00;65.00
26909;DHT22;14477;51.038;4.588;2023-07-16T13:17:09;25.00;65.80
26909;DHT22;14477;51.038;4.588;2023-07-16T13:19:35;25.10;66.40
26909;DHT22;14477;51.038;4.588;2023-07-16T13:22:01;25.20;66.90
26909;DHT22;14477;51.038;4.588;2023-07-16T13:24:26;25.40;67.10
26909;DHT22;14477;51.038;4.588;2023-07-16T13:26:52;25.60;67.70
26909;DHT22;14477;51.038;4.588;2023-07-16T13:29:18;25.80;67.60
26909;DHT22;14477;51.038;4.588;2023-07-16T13:31:44;26.00;66.30
26909;DHT22;14477;51.038;4.588;2023-07-16T13:34:10;26.10;65.20
26909;DHT22;14477;51.038;4.588;2023-07-16T13:36:35;26.20;64.00
26909;DHT22;14477;51.038;4.588;2023-07-16T13:39:01;26.20;63.70
26909;DHT22;14477;51.038;4.588;2023-07-16T13:41:28;26.10;63.30
26909;DHT22;14477;51.038;4.588;2023-07-16T13:43:53;26.00;63.00
26909;DHT22;14477;51.038;4.588;2023-07-16T13:46:19;25.90;63.20
26909;DHT22;14477;51.038;4.588;2023-07-16T13:48:45;25.80;63.60
26909;DHT22;14477;51.038;4.588;2023-07-16T13:51:11;25.70;63.60
26909;DHT22;14477;51.038;4.588;2023-07-16T13:53:36;25.70;63.40
26909;DHT22;14477;51.038;4.588;2023-07-16T13:56:02;25.60;63.20
26909;DHT22;14477;51.038;4.588;2023-07-16T13:58:27;25.50;62.80
26909;DHT22;14477;51.038;4.588;2023-07-16T14:00:53;25.40;63.00
26909;DHT22;14477;51.038;4.588;2023-07-16T14:03:19;25.30;62.90
26909;DHT22;14477;51.038;4.588;2023-07-16T14:05:44;25.30;63.40
26909;DHT22;14477;51.038;4.588;2023-07-16T14:08:10;25.20;63.60
26909;DHT22;14477;51.038;4.588;2023-07-16T14:10:36;25.30;63.80
26909;DHT22;14477;51.038;4.588;2023-07-16T14:13:01;25.30;64.30
26909;DHT22;14477;51.038;4.588;2023-07-16T14:15:27;25.30;64.50
26909;DHT22;14477;51.038;4.588;2023-07-16T14:17:53;25.50;64.60
26909;DHT22;14477;51.038;4.588;2023-07-16T14:20:18;25.50;64.00
26909;DHT22;14477;51.038;4.588;2023-07-16T14:22:45;25.60;64.00
26909;DHT22;14477;51.038;4.588;2023-07-16T14:25:11;25.70;63.60
26909;DHT22;14477;51.038;4.588;2023-07-16T14:27:36;25.70;63.50
26909;DHT22;14477;51.038;4.588;2023-07-16T14:30:02;25.80;63.30
26909;DHT22;14477;51.038;4.588;2023-07-16T14:32:28;25.80;62.80
26909;DHT22;14477;51.038;4.588;2023-07-16T14:34:57;25.80;62.40
26909;DHT22;14477;51.038;4.588;2023-07-16T14:37:22;25.80;62.20
26909;DHT22;14477;51.038;4.588;2023-07-16T14:39:48;25.80;62.50
26909;DHT22;14477;51.038;4.588;2023-07-16T14:42:14;25.90;62.30
26909;DHT22;14477;51.038;4.588;2023-07-16T14:44:39;25.90;62.60
26909;DHT22;14477;51.038;4.588;2023-07-16T14:47:05;25.90;62.30
26909;DHT22;14477;51.038;4.588;2023-07-16T14:49:31;25.90;62.40
26909;DHT22;14477;51.038;4.588;2023-07-16T14:51:57;26.00;62.30
26909;DHT22;14477;51.038;4.588;2023-07-16T14:54:23;26.00;61.90
26909;DHT22;14477;51.038;4.588;2023-07-16T14:56:49;26.10;62.10
26909;DHT22;14477;51.038;4.588;2023-07-16T14:59:14;26.10;62.00
26909;DHT22;14477;51.038;4.588;2023-07-16T15:01:40;26.10;62.00
26909;DHT22;14477;51.038;4.588;2023-07-16T15:04:06;26.20;61.20
26909;DHT22;14477;51.038;4.588;2023-07-16T15:06:31;26.20;60.80
26909;DHT22;14477;51.038;4.588;2023-07-16T15:08:57;26.20;60.90
26909;DHT22;14477;51.038;4.588;2023-07-16T15:11:23;26.20;60.80
26909;DHT22;14477;51.038;4.588;2023-07-16T15:13:48;26.20;60.60
26909;DHT22;14477;51.038;4.588;2023-07-16T15:16:14;26.20;60.40
26909;DHT22;14477;51.038;4.588;2023-07-16T15:18:40;26.20;60.20
26909;DHT22;14477;51.038;4.588;2023-07-16T15:21:06;26.20;60.10
26909;DHT22;14477;51.038;4.588;2023-07-16T15:23:31;26.20;60.20
26909;DHT22;14477;51.038;4.588;2023-07-16T15:26:05;26.30;61.00
26909;DHT22;14477;51.038;4.588;2023-07-16T15:28:33;26.30;59.70
26909;DHT22;14477;51.038;4.588;2023-07-16T15:31:02;26.40;60.40
26909;DHT22;14477;51.038;4.588;2023-07-16T15:33:28;26.40;59.90
26909;DHT22;14477;51.038;4.588;2023-07-16T15:35:56;26.50;60.10